sensor_id;sensor_type;location;lat;lon;timestamp;temperature;humidity
37285;DHT22;23172;53.550;9.964;2023-08-12T00:01:38;23.40;75.90
37285;DHT22;23172;53.550;9.964;2023-08-12T00:06:41;23.30;76.00
37285;DHT22;23172;53.550;9.964;2023-08-12T00:11:43;23.30;76.40
37285;DHT22;23172;53.550;9.964;2023-08-12T00:16:45;23.20;77.50
37285;DHT22;23172;53.550;9.964;2023-08-12T00:21:48;23.10;78.20
37285;DHT22;23172;53.550;9.964;2023-08-12T00:26:51;23.10;78.60
37285;DHT22;23172;53.550;9.964;2023-08-12T00:31:52;23.00;78.80
37285;DHT22;23172;53.550;9.964;2023-08-12T00:36:56;23.00;78.50
37285;DHT22;23172;53.550;9.964;2023-08-12T00:41:58;23.60;78.30
37285;DHT22;23172;53.550;9.964;2023-08-12T00:47:00;24.00;76.70
37285;DHT22;23172;53.550;9.964;2023-08-12T00:52:04;24.20;75.50
37285;DHT22;23172;53.550;9.964;2023-08-12T00:57:09;24.30;74.50
37285;DHT22;23172;53.550;9.964;2023-08-12T01:02:12;24.20;74.30
37285;DHT22;23172;53.550;9.964;2023-08-12T01:07:15;24.20;74.80
37285;DHT22;23172;53.550;9.964;2023-08-12T01:12:21;24.20;74.20
37285;DHT22;23172;53.550;9.964;2023-08-12T01:17:27;24.10;74.50
37285;DHT22;23172;53.550;9.964;2023-08-12T01:22:32;24.00;75.10
37285;DHT22;23172;53.550;9.964;2023-08-12T01:27:38;23.90;75.70
37285;DHT22;23172;53.550;9.964;2023-08-12T01:32:44;24.00;75.60
37285;DHT22;23172;53.550;9.964;2023-08-12T01:37:49;24.00;75.60
37285;DHT22;23172;53.550;9.964;2023-08-12T01:42:53;23.90;76.00
37285;DHT22;23172;53.550;9.964;2023-08-12T01:47:55;23.80;76.40
37285;DHT22;23172;53.550;9.964;2023-08-12T01:52:56;23.90;75.80
37285;DHT22;23172;53.550;9.964;2023-08-12T01:58:00;23.90;75.50
37285;DHT22;23172;53.550;9.964;2023-08-12T02:03:02;23.80;76.00
37285;DHT22;23172;53.550;9.964;2023-08-12T02:08:05;23.80;76.00
37285;DHT22;23172;53.550;9.964;2023-08-12T02:13:08;23.80;76.80
37285;DHT22;23172;53.550;9.964;2023-08-12T02:18:10;23.80;76.00
37285;DHT22;23172;53.550;9.964;2023-08-12T02:23:12;23.60;76.50
37285;DHT22;23172;53.550;9.964;2023-08-12T02:28:15;23.40;77.40
37285;DHT22;23172;53.550;9.964;2023-08-12T02:33:17;23.30;78.00
37285;DHT22;23172;53.550;9.964;2023-08-12T02:38:19;23.30;78.70
37285;DHT22;23172;53.550;9.964;2023-08-12T02:43:22;23.30;78.90
37285;DHT22;23172;53.550;9.964;2023-08-12T02:48:24;23.30;79.70
37285;DHT22;23172;53.550;9.964;2023-08-12T02:53:26;23.20;80.40
37285;DHT22;23172;53.550;9.964;2023-08-12T02:58:29;23.30;80.20
37285;DHT22;23172;53.550;9.964;2023-08-12T03:03:31;23.30;80.00
37285;DHT22;23172;53.550;9.964;2023-08-12T03:08:33;23.30;80.90
37285;DHT22;23172;53.550;9.964;2023-08-12T03:13:36;23.30;80.50
37285;DHT22;23172;53.550;9.964;2023-08-12T03:18:38;23.30;80.40
37285;DHT22;23172;53.550;9.964;2023-08-12T03:23:40;23.30;80.50
37285;DHT22;23172;53.550;9.964;2023-08-12T03:28:44;23.40;80.10
37285;DHT22;23172;53.550;9.964;2023-08-12T03:33:45;23.50;79.10
37285;DHT22;23172;53.550;9.964;2023-08-12T03:38:47;23.50;78.90
37285;DHT22;23172;53.550;9.964;2023-08-12T03:43:51;23.50;78.60
37285;DHT22;23172;53.550;9.964;2023-08-12T03:48:52;23.50;78.50
37285;DHT22;23172;53.550;9.964;2023-08-12T03:53:54;23.50;78.30
37285;DHT22;23172;53.550;9.964;2023-08-12T03:58:59;23.50;78.40
37285;DHT22;23172;53.550;9.964;2023-08-12T04:04:00;23.40;79.30
37285;DHT22;23172;53.550;9.964;2023-08-12T04:09:02;23.40;80.80
37285;DHT22;23172;53.550;9.964;2023-08-12T04:14:06;23.40;80.10
37285;DHT22;23172;53.550;9.964;2023-08-12T04:19:07;23.40;80.10
37285;DHT22;23172;53.550;9.964;2023-08-12T04:24:09;23.50;80.10
37285;DHT22;23172;53.550;9.964;2023-08-12T04:29:13;23.50;80.10
37285;DHT22;23172;53.550;9.964;2023-08-12T04:34:14;23.50;80.90
37285;DHT22;23172;53.550;9.964;2023-08-12T04:44:26;23.60;80.10
37285;DHT22;23172;53.550;9.964;2023-08-12T04:49:27;23.60;80.00
37285;DHT22;23172;53.550;9.964;2023-08-12T04:54:29;23.50;80.10
37285;DHT22;23172;53.550;9.964;2023-08-12T04:59:32;23.50;80.30
37285;DHT22;23172;53.550;9.964;2023-08-12T05:04:34;23.40;80.10
37285;DHT22;23172;53.550;9.964;2023-08-12T05:09:36;23.40;80.40
37285;DHT22;23172;53.550;9.964;2023-08-12T05:14:40;23.30;80.60
37285;DHT22;23172;53.550;9.964;2023-08-12T05:19:41;23.40;80.50
37285;DHT22;23172;53.550;9.964;2023-08-12T05:24:43;23.50;80.30
37285;DHT22;23172;53.550;9.964;2023-08-12T05:29:46;23.50;80.10
37285;DHT22;23172;53.550;9.964;2023-08-12T05:34:50;23.50;81.10
37285;DHT22;23172;53.550;9.964;2023-08-12T05:39:52;23.50;81.50
37285;DHT22;23172;53.550;9.964;2023-08-12T05:44:55;23.50;82.50
37285;DHT22;23172;53.550;9.964;2023-08-12T05:49:57;23.50;85.00
37285;DHT22;23172;53.550;9.964;2023-08-12T06:00:03;23.50;86.70
37285;DHT22;23172;53.550;9.964;2023-08-12T06:05:07;23.50;89.90
37285;DHT22;23172;53.550;9.964;2023-08-12T06:10:09;23.60;90.90
37285;DHT22;23172;53.550;9.964;2023-08-12T06:15:12;23.60;91.40
37285;DHT22;23172;53.550;9.964;2023-08-12T06:20:14;23.70;91.60
37285;DHT22;23172;53.550;9.964;2023-08-12T06:30:20;23.60;92.00
37285;DHT22;23172;53.550;9.964;2023-08-12T07:05:39;23.50;93.30
37285;DHT22;23172;53.550;9.964;2023-08-12T07:10:41;23.90;94.60
37285;DHT22;23172;53.550;9.964;2023-08-12T07:15:44;24.00;94.40
37285;DHT22;23172;53.550;9.964;2023-08-12T07:51:02;24.00;94.20
37285;DHT22;23172;53.550;9.964;2023-08-12T07:56:04;24.80;92.90
